sensor_id;sensor_type;location;lat;lon;timestamp;P1;durP1;ratioP1;P2;durP2;ratioP2
37199;SDS011;23096;50.892;16.746;2024-02-26T00:01:40;6.60;;;4.00;;
37199;SDS011;23096;50.892;16.746;2024-02-26T00:04:06;10.50;;;4.70;;
37199;SDS011;23096;50.892;16.746;2024-02-26T00:06:32;9.60;;;4.80;;
37199;SDS011;23096;50.892;16.746;2024-02-26T00:08:57;9.20;;;3.80;;
37199;SDS011;23096;50.892;16.746;2024-02-26T00:11:23;8.00;;;4.50;;
37199;SDS011;23096;50.892;16.746;2024-02-26T00:13:49;12.50;;;4.70;;
37199;SDS011;23096;50.892;16.746;2024-02-26T00:16:14;9.70;;;3.60;;
37199;SDS011;23096;50.892;16.746;2024-02-26T00:18:40;10.90;;;4.40;;
37199;SDS011;23096;50.892;16.746;2024-02-26T00:21:06;8.90;;;3.90;;
37199;SDS011;23096;50.892;16.746;2024-02-26T00:23:32;8.30;;;3.70;;
37199;SDS011;23096;50.892;16.746;2024-02-26T00:25:57;9.50;;;4.80;;
37199;SDS011;23096;50.892;16.746;2024-02-26T00:28:23;9.60;;;3.50;;
37199;SDS011;23096;50.892;16.746;2024-02-26T00:30:50;6.90;;;4.20;;
37199;SDS011;23096;50.892;16.746;2024-02-26T00:33:16;8.70;;;4.40;;
37199;SDS011;23096;50.892;16.746;2024-02-26T00:35:42;8.60;;;3.80;;
37199;SDS011;23096;50.892;16.746;2024-02-26T00:38:08;10.80;;;3.80;;
37199;SDS011;23096;50.892;16.746;2024-02-26T00:40:33;9.80;;;4.40;;
37199;SDS011;23096;50.892;16.746;2024-02-26T00:42:59;7.80;;;3.90;;
37199;SDS011;23096;50.892;16.746;2024-02-26T00:45:25;6.60;;;3.60;;
37199;SDS011;23096;50.892;16.746;2024-02-26T00:47:51;6.00;;;3.30;;
37199;SDS011;23096;50.892;16.746;2024-02-26T00:50:16;5.50;;;3.50;;
37199;SDS011;23096;50.892;16.746;2024-02-26T00:52:42;5.90;;;3.30;;
37199;SDS011;23096;50.892;16.746;2024-02-26T00:55:08;5.90;;;2.90;;
37199;SDS011;23096;50.892;16.746;2024-02-26T00:57:34;6.20;;;3.10;;
37199;SDS011;23096;50.892;16.746;2024-02-26T00:59:59;5.10;;;3.20;;
37199;SDS011;23096;50.892;16.746;2024-02-26T01:02:25;7.50;;;3.00;;
37199;SDS011;23096;50.892;16.746;2024-02-26T01:04:51;6.60;;;3.20;;
37199;SDS011;23096;50.892;16.746;2024-02-26T01:07:17;8.50;;;2.70;;
37199;SDS011;23096;50.892;16.746;2024-02-26T01:09:44;6.40;;;3.40;;
37199;SDS011;23096;50.892;16.746;2024-02-26T01:12:09;4.70;;;2.70;;
37199;SDS011;23096;50.892;16.746;2024-02-26T01:14:35;8.10;;;3.40;;
37199;SDS011;23096;50.892;16.746;2024-02-26T01:17:00;7.90;;;3.50;;
37199;SDS011;23096;50.892;16.746;2024-02-26T01:19:26;7.40;;;3.20;;
37199;SDS011;23096;50.892;16.746;2024-02-26T01:21:51;10.40;;;4.20;;
37199;SDS011;23096;50.892;16.746;2024-02-26T01:24:17;7.60;;;3.20;;
37199;SDS011;23096;50.892;16.746;2024-02-26T01:26:42;7.60;;;3.90;;
37199;SDS011;23096;50.892;16.746;2024-02-26T01:29:08;9.70;;;4.20;;
37199;SDS011;23096;50.892;16.746;2024-02-26T01:31:33;9.70;;;4.90;;
37199;SDS011;23096;50.892;16.746;2024-02-26T01:34:00;6.00;;;3.60;;
37199;SDS011;23096;50.892;16.746;2024-02-26T01:36:26;6.10;;;3.70;;
37199;SDS011;23096;50.892;16.746;2024-02-26T01:38:51;8.30;;;3.90;;
37199;SDS011;23096;50.892;16.746;2024-02-26T01:41:17;11.70;;;6.20;;
37199;SDS011;23096;50.892;16.746;2024-02-26T01:43:43;15.30;;;7.60;;
37199;SDS011;23096;50.892;16.746;2024-02-26T01:46:10;17.70;;;8.60;;
37199;SDS011;23096;50.892;16.746;2024-02-26T01:48:39;14.20;;;9.10;;
37199;SDS011;23096;50.892;16.746;2024-02-26T01:51:06;20.60;;;10.90;;
37199;SDS011;23096;50.892;16.746;2024-02-26T01:53:32;19.20;;;10.90;;
37199;SDS011;23096;50.892;16.746;2024-02-26T01:55:58;17.50;;;9.60;;
37199;SDS011;23096;50.892;16.746;2024-02-26T01:58:23;18.00;;;11.00;;
37199;SDS011;23096;50.892;16.746;2024-02-26T02:00:49;20.00;;;10.70;;
37199;SDS011;23096;50.892;16.746;2024-02-26T02:03:15;15.80;;;9.00;;
37199;SDS011;23096;50.892;16.746;2024-02-26T02:05:41;16.40;;;9.20;;
37199;SDS011;23096;50.892;16.746;2024-02-26T02:08:08;17.20;;;9.00;;
37199;SDS011;23096;50.892;16.746;2024-02-26T02:10:35;14.60;;;8.10;;
37199;SDS011;23096;50.892;16.746;2024-02-26T02:13:02;15.30;;;8.70;;
37199;SDS011;23096;50.892;16.746;2024-02-26T02:15:27;11.60;;;7.20;;
37199;SDS011;23096;50.892;16.746;2024-02-26T02:17:53;13.90;;;7.30;;
37199;SDS011;23096;50.892;16.746;2024-02-26T02:20:18;14.70;;;8.80;;
37199;SDS011;23096;50.892;16.746;2024-02-26T02:22:45;18.70;;;10.80;;
37199;SDS011;23096;50.892;16.746;2024-02-26T02:25:11;22.50;;;13.70;;
37199;SDS011;23096;50.892;16.746;2024-02-26T02:27:37;23.80;;;14.40;;
37199;SDS011;23096;50.892;16.746;2024-02-26T02:30:03;23.60;;;13.50;;
37199;SDS011;23096;50.892;16.746;2024-02-26T02:32:29;31.90;;;16.70;;
37199;SDS011;23096;50.892;16.746;2024-02-26T02:34:55;27.30;;;14.10;;
37199;SDS011;23096;50.892;16.746;2024-02-26T02:37:21;32.50;;;15.80;;
37199;SDS011;23096;50.892;16.746;2024-02-26T02:39:47;27.90;;;15.90;;
37199;SDS011;23096;50.892;16.746;2024-02-26T02:42:12;23.80;;;13.90;;
37199;SDS011;23096;50.892;16.746;2024-02-26T02:44:38;21.80;;;12.20;;
37199;SDS011;23096;50.892;16.746;2024-02-26T02:47:04;20.60;;;11.60;;
37199;SDS011;23096;50.892;16.746;2024-02-26T02:49:29;21.40;;;10.50;;
37199;SDS011;23096;50.892;16.746;2024-02-26T02:51:55;18.00;;;9.70;;
37199;SDS011;23096;50.892;16.746;2024-02-26T02:54:22;18.00;;;9.60;;
37199;SDS011;23096;50.892;16.746;2024-02-26T02:56:48;17.00;;;8.50;;
37199;SDS011;23096;50.892;16.746;2024-02-26T02:59:14;15.00;;;8.10;;
37199;SDS011;23096;50.892;16.746;2024-02-26T03:01:40;13.80;;;7.60;;
37199;SDS011;23096;50.892;16.746;2024-02-26T03:04:05;14.40;;;6.80;;
37199;SDS011;23096;50.892;16.746;2024-02-26T03:06:31;12.40;;;6.40;;
37199;SDS011;23096;50.892;16.746;2024-02-26T03:08:56;12.80;;;7.10;;
37199;SDS011;23096;50.892;16.746;2024-02-26T03:11:22;11.50;;;6.90;;
37199;SDS011;23096;50.892;16.746;2024-02-26T03:13:47;19.60;;;10.90;;
37199;SDS011;23096;50.892;16.746;2024-02-26T03:16:13;16.70;;;10.10;;
37199;SDS011;23096;50.892;16.746;2024-02-26T03:18:39;19.60;;;10.30;;
37199;SDS011;23096;50.892;16.746;2024-02-26T03:21:05;17.80;;;10.40;;
37199;SDS011;23096;50.892;16.746;2024-02-26T03:23:31;19.10;;;11.50;;
37199;SDS011;23096;50.892;16.746;2024-02-26T03:26:01;19.70;;;9.90;;
37199;SDS011;23096;50.892;16.746;2024-02-26T03:28:28;16.70;;;9.00;;
37199;SDS011;23096;50.892;16.746;2024-02-26T03:30:54;15.20;;;8.40;;
37199;SDS011;23096;50.892;16.746;2024-02-26T03:33:20;12.20;;;7.50;;
37199;SDS011;23096;50.892;16.746;2024-02-26T03:35:46;12.20;;;6.40;;
37199;SDS011;23096;50.892;16.746;2024-02-26T03:38:12;12.70;;;7.80;;
37199;SDS011;23096;50.892;16.746;2024-02-26T03:40:38;13.50;;;6.70;;
37199;SDS011;23096;50.892;16.746;2024-02-26T03:43:04;11.50;;;6.80;;
37199;SDS011;23096;50.892;16.746;2024-02-26T03:45:32;11.90;;;6.30;;
37199;SDS011;23096;50.892;16.746;2024-02-26T03:47:57;11.00;;;6.60;;
37199;SDS011;23096;50.892;16.746;2024-02-26T03:50:23;11.90;;;6.30;;
37199;SDS011;23096;50.892;16.746;2024-02-26T03:52:49;12.00;;;6.20;;
37199;SDS011;23096;50.892;16.746;2024-02-26T03:55:14;9.70;;;5.50;;
37199;SDS011;23096;50.892;16.746;2024-02-26T03:57:40;9.20;;;5.40;;
37199;SDS011;23096;50.892;16.746;2024-02-26T04:00:06;10.70;;;5.10;;
37199;SDS011;23096;50.892;16.746;2024-02-26T04:02:36;8.80;;;6.20;;
37199;SDS011;23096;50.892;16.746;2024-02-26T04:05:01;15.70;;;6.60;;
37199;SDS011;23096;50.892;16.746;2024-02-26T04:07:27;36.70;;;16.40;;
37199;SDS011;23096;50.892;16.746;2024-02-26T04:09:52;54.80;;;20.90;;
37199;SDS011;23096;50.892;16.746;2024-02-26T04:12:18;40.30;;;17.90;;
37199;SDS011;23096;50.892;16.746;2024-02-26T04:14:44;33.20;;;16.90;;
37199;SDS011;23096;50.892;16.746;2024-02-26T04:17:09;33.50;;;15.80;;
37199;SDS011;23096;50.892;16.746;2024-02-26T04:19:36;33.90;;;15.30;;
37199;SDS011;23096;50.892;16.746;2024-02-26T04:22:01;30.00;;;15.80;;
37199;SDS011;23096;50.892;16.746;2024-02-26T04:24:27;28.30;;;14.40;;
37199;SDS011;23096;50.892;16.746;2024-02-26T04:26:52;35.40;;;16.10;;
37199;SDS011;23096;50.892;16.746;2024-02-26T04:29:18;26.60;;;14.40;;
37199;SDS011;23096;50.892;16.746;2024-02-26T04:31:44;26.60;;;14.20;;
37199;SDS011;23096;50.892;16.746;2024-02-26T04:34:11;27.60;;;13.40;;
37199;SDS011;23096;50.892;16.746;2024-02-26T04:36:36;26.00;;;13.30;;
37199;SDS011;23096;50.892;16.746;2024-02-26T04:39:02;24.80;;;13.00;;
37199;SDS011;23096;50.892;16.746;2024-02-26T04:41:28;20.50;;;11.80;;
37199;SDS011;23096;50.892;16.746;2024-02-26T04:43:53;21.40;;;11.60;;
37199;SDS011;23096;50.892;16.746;2024-02-26T04:46:19;21.70;;;12.40;;
37199;SDS011;23096;50.892;16.746;2024-02-26T04:48:47;20.10;;;12.20;;
37199;SDS011;23096;50.892;16.746;2024-02-26T04:51:12;20.00;;;12.60;;
37199;SDS011;23096;50.892;16.746;2024-02-26T04:53:38;21.30;;;12.70;;
37199;SDS011;23096;50.892;16.746;2024-02-26T04:56:04;22.40;;;11.40;;
37199;SDS011;23096;50.892;16.746;2024-02-26T04:58:29;19.60;;;12.30;;
37199;SDS011;23096;50.892;16.746;2024-02-26T05:00:55;19.30;;;11.30;;
37199;SDS011;23096;50.892;16.746;2024-02-26T05:03:21;21.90;;;11.40;;
37199;SDS011;23096;50.892;16.746;2024-02-26T05:05:46;20.20;;;11.40;;
37199;SDS011;23096;50.892;16.746;2024-02-26T05:08:12;19.50;;;11.40;;
37199;SDS011;23096;50.892;16.746;2024-02-26T05:10:38;16.30;;;10.80;;
37199;SDS011;23096;50.892;16.746;2024-02-26T05:13:08;20.20;;;11.50;;
37199;SDS011;23096;50.892;16.746;2024-02-26T05:15:34;19.30;;;12.10;;
37199;SDS011;23096;50.892;16.746;2024-02-26T05:18:01;22.90;;;14.70;;
37199;SDS011;23096;50.892;16.746;2024-02-26T05:20:28;30.70;;;15.70;;
37199;SDS011;23096;50.892;16.746;2024-02-26T05:22:53;29.10;;;16.70;;
37199;SDS011;23096;50.892;16.746;2024-02-26T05:25:19;31.10;;;16.30;;
37199;SDS011;23096;50.892;16.746;2024-02-26T05:27:45;25.40;;;15.30;;
37199;SDS011;23096;50.892;16.746;2024-02-26T05:30:10;27.00;;;15.10;;
37199;SDS011;23096;50.892;16.746;2024-02-26T05:32:36;38.70;;;17.40;;
37199;SDS011;23096;50.892;16.746;2024-02-26T05:35:02;31.80;;;17.70;;
37199;SDS011;23096;50.892;16.746;2024-02-26T05:37:29;28.80;;;17.00;;
37199;SDS011;23096;50.892;16.746;2024-02-26T05:39:55;31.60;;;17.50;;
37199;SDS011;23096;50.892;16.746;2024-02-26T05:42:21;23.90;;;15.10;;
37199;SDS011;23096;50.892;16.746;2024-02-26T05:44:46;26.30;;;16.10;;
37199;SDS011;23096;50.892;16.746;2024-02-26T05:47:12;29.20;;;15.80;;
37199;SDS011;23096;50.892;16.746;2024-02-26T05:49:39;37.80;;;22.20;;
37199;SDS011;23096;50.892;16.746;2024-02-26T05:52:04;35.20;;;22.30;;
37199;SDS011;23096;50.892;16.746;2024-02-26T05:54:31;37.50;;;23.10;;
37199;SDS011;23096;50.892;16.746;2024-02-26T05:56:57;40.90;;;22.40;;
37199;SDS011;23096;50.892;16.746;2024-02-26T05:59:22;38.10;;;21.50;;
37199;SDS011;23096;50.892;16.746;2024-02-26T06:01:48;33.80;;;20.80;;
37199;SDS011;23096;50.892;16.746;2024-02-26T06:04:13;39.10;;;23.10;;
37199;SDS011;23096;50.892;16.746;2024-02-26T06:06:39;37.70;;;21.60;;
37199;SDS011;23096;50.892;16.746;2024-02-26T06:09:05;28.80;;;17.00;;
37199;SDS011;23096;50.892;16.746;2024-02-26T06:11:31;33.60;;;17.80;;
37199;SDS011;23096;50.892;16.746;2024-02-26T06:13:56;27.70;;;17.00;;
37199;SDS011;23096;50.892;16.746;2024-02-26T06:16:22;29.60;;;15.80;;
37199;SDS011;23096;50.892;16.746;2024-02-26T06:18:47;25.00;;;14.30;;
37199;SDS011;23096;50.892;16.746;2024-02-26T06:21:13;31.30;;;16.90;;
37199;SDS011;23096;50.892;16.746;2024-02-26T06:23:39;31.70;;;19.10;;
37199;SDS011;23096;50.892;16.746;2024-02-26T06:26:05;36.40;;;21.90;;
37199;SDS011;23096;50.892;16.746;2024-02-26T06:28:31;34.60;;;21.70;;
37199;SDS011;23096;50.892;16.746;2024-02-26T06:30:59;34.90;;;20.50;;
37199;SDS011;23096;50.892;16.746;2024-02-26T06:33:24;34.30;;;19.50;;
37199;SDS011;23096;50.892;16.746;2024-02-26T06:35:50;35.70;;;18.70;;
37199;SDS011;23096;50.892;16.746;2024-02-26T06:38:16;28.90;;;17.10;;
37199;SDS011;23096;50.892;16.746;2024-02-26T06:40:43;28.50;;;16.30;;
37199;SDS011;23096;50.892;16.746;2024-02-26T06:43:09;27.90;;;16.20;;
37199;SDS011;23096;50.892;16.746;2024-02-26T06:45:35;25.80;;;16.70;;
37199;SDS011;23096;50.892;16.746;2024-02-26T06:48:00;30.50;;;16.40;;
37199;SDS011;23096;50.892;16.746;2024-02-26T06:50:27;23.70;;;15.00;;
37199;SDS011;23096;50.892;16.746;2024-02-26T06:52:53;29.40;;;15.50;;
37199;SDS011;23096;50.892;16.746;2024-02-26T06:55:18;24.80;;;16.30;;
37199;SDS011;23096;50.892;16.746;2024-02-26T06:57:44;25.90;;;14.20;;
37199;SDS011;23096;50.892;16.746;2024-02-26T07:00:09;25.40;;;15.10;;
37199;SDS011;23096;50.892;16.746;2024-02-26T07:02:40;30.60;;;15.70;;
37199;SDS011;23096;50.892;16.746;2024-02-26T07:05:07;19.90;;;13.10;;
37199;SDS011;23096;50.892;16.746;2024-02-26T07:07:33;22.60;;;13.70;;
37199;SDS011;23096;50.892;16.746;2024-02-26T07:09:58;23.50;;;15.30;;
37199;SDS011;23096;50.892;16.746;2024-02-26T07:12:24;28.00;;;16.40;;
37199;SDS011;23096;50.892;16.746;2024-02-26T07:14:49;31.60;;;17.60;;
37199;SDS011;23096;50.892;16.746;2024-02-26T07:17:15;27.80;;;16.00;;
37199;SDS011;23096;50.892;16.746;2024-02-26T07:19:42;31.00;;;17.30;;
37199;SDS011;23096;50.892;16.746;2024-02-26T07:22:08;30.30;;;17.50;;
37199;SDS011;23096;50.892;16.746;2024-02-26T07:24:33;28.40;;;16.80;;
37199;SDS011;23096;50.892;16.746;2024-02-26T07:26:59;35.80;;;17.60;;
37199;SDS011;23096;50.892;16.746;2024-02-26T07:29:24;31.30;;;18.60;;
37199;SDS011;23096;50.892;16.746;2024-02-26T07:31:50;27.30;;;16.50;;
37199;SDS011;23096;50.892;16.746;2024-02-26T07:34:16;35.80;;;17.20;;
37199;SDS011;23096;50.892;16.746;2024-02-26T07:36:42;31.10;;;17.70;;
37199;SDS011;23096;50.892;16.746;2024-02-26T07:39:07;31.30;;;18.10;;
37199;SDS011;23096;50.892;16.746;2024-02-26T07:41:33;33.00;;;19.00;;
37199;SDS011;23096;50.892;16.746;2024-02-26T07:43:59;28.20;;;18.70;;
37199;SDS011;23096;50.892;16.746;2024-02-26T07:46:24;27.90;;;16.80;;
37199;SDS011;23096;50.892;16.746;2024-02-26T07:48:50;31.10;;;17.40;;
37199;SDS011;23096;50.892;16.746;2024-02-26T07:51:15;35.10;;;19.50;;
37199;SDS011;23096;50.892;16.746;2024-02-26T07:53:42;33.00;;;18.80;;
37199;SDS011;23096;50.892;16.746;2024-02-26T07:56:09;27.30;;;17.20;;
37199;SDS011;23096;50.892;16.746;2024-02-26T07:58:35;28.60;;;14.70;;
37199;SDS011;23096;50.892;16.746;2024-02-26T08:01:01;24.30;;;15.50;;
37199;SDS011;23096;50.892;16.746;2024-02-26T08:03:27;27.00;;;15.20;;
37199;SDS011;23096;50.892;16.746;2024-02-26T08:05:53;23.40;;;16.50;;
37199;SDS011;23096;50.892;16.746;2024-02-26T08:08:19;25.70;;;16.20;;
37199;SDS011;23096;50.892;16.746;2024-02-26T08:10:44;28.40;;;17.10;;
37199;SDS011;23096;50.892;16.746;2024-02-26T08:13:10;37.70;;;19.90;;
37199;SDS011;23096;50.892;16.746;2024-02-26T08:15:35;42.20;;;21.20;;
37199;SDS011;23096;50.892;16.746;2024-02-26T08:18:04;34.00;;;19.70;;
37199;SDS011;23096;50.892;16.746;2024-02-26T08:20:30;29.30;;;17.20;;
37199;SDS011;23096;50.892;16.746;2024-02-26T08:22:57;28.30;;;16.60;;
37199;SDS011;23096;50.892;16.746;2024-02-26T08:25:23;20.40;;;13.70;;
37199;SDS011;23096;50.892;16.746;2024-02-26T08:27:49;18.90;;;12.70;;
37199;SDS011;23096;50.892;16.746;2024-02-26T08:30:16;18.60;;;12.20;;
37199;SDS011;23096;50.892;16.746;2024-02-26T08:32:51;19.50;;;11.80;;
37199;SDS011;23096;50.892;16.746;2024-02-26T08:35:17;16.10;;;11.70;;
37199;SDS011;23096;50.892;16.746;2024-02-26T08:37:46;21.10;;;10.40;;
37199;SDS011;23096;50.892;16.746;2024-02-26T08:40:13;18.30;;;10.60;;
37199;SDS011;23096;50.892;16.746;2024-02-26T08:42:39;16.40;;;11.60;;
37199;SDS011;23096;50.892;16.746;2024-02-26T08:45:05;19.30;;;11.50;;
37199;SDS011;23096;50.892;16.746;2024-02-26T08:47:31;15.10;;;11.40;;
37199;SDS011;23096;50.892;16.746;2024-02-26T08:49:57;15.10;;;10.70;;
37199;SDS011;23096;50.892;16.746;2024-02-26T08:52:23;17.10;;;10.70;;
37199;SDS011;23096;50.892;16.746;2024-02-26T08:54:49;15.30;;;10.90;;
37199;SDS011;23096;50.892;16.746;2024-02-26T08:57:15;14.20;;;9.90;;
37199;SDS011;23096;50.892;16.746;2024-02-26T08:59:41;16.80;;;10.80;;
37199;SDS011;23096;50.892;16.746;2024-02-26T09:02:07;16.30;;;11.30;;
37199;SDS011;23096;50.892;16.746;2024-02-26T09:04:34;14.50;;;10.10;;
37199;SDS011;23096;50.892;16.746;2024-02-26T09:07:00;15.00;;;10.40;;
37199;SDS011;23096;50.892;16.746;2024-02-26T09:09:27;15.60;;;10.40;;
37199;SDS011;23096;50.892;16.746;2024-02-26T09:11:53;19.20;;;11.30;;
37199;SDS011;23096;50.892;16.746;2024-02-26T09:14:20;15.00;;;11.90;;
37199;SDS011;23096;50.892;16.746;2024-02-26T09:16:46;18.90;;;11.90;;
37199;SDS011;23096;50.892;16.746;2024-02-26T09:19:15;19.90;;;12.00;;
37199;SDS011;23096;50.892;16.746;2024-02-26T09:21:44;17.10;;;11.70;;
37199;SDS011;23096;50.892;16.746;2024-02-26T09:24:13;17.60;;;12.70;;
37199;SDS011;23096;50.892;16.746;2024-02-26T09:26:38;18.20;;;12.80;;
37199;SDS011;23096;50.892;16.746;2024-02-26T09:29:04;18.80;;;11.90;;
37199;SDS011;23096;50.892;16.746;2024-02-26T09:31:31;18.80;;;12.90;;
37199;SDS011;23096;50.892;16.746;2024-02-26T09:33:57;17.90;;;12.00;;
37199;SDS011;23096;50.892;16.746;2024-02-26T09:36:22;18.40;;;12.40;;
37199;SDS011;23096;50.892;16.746;2024-02-26T09:38:48;17.80;;;13.40;;
37199;SDS011;23096;50.892;16.746;2024-02-26T09:41:16;20.00;;;13.00;;
37199;SDS011;23096;50.892;16.746;2024-02-26T09:43:43;20.70;;;12.10;;
37199;SDS011;23096;50.892;16.746;2024-02-26T09:46:13;15.80;;;11.70;;
37199;SDS011;23096;50.892;16.746;2024-02-26T09:48:40;20.10;;;13.00;;
37199;SDS011;23096;50.892;16.746;2024-02-26T09:51:10;17.40;;;12.40;;
37199;SDS011;23096;50.892;16.746;2024-02-26T09:53:37;18.40;;;12.60;;
37199;SDS011;23096;50.892;16.746;2024-02-26T09:56:08;19.30;;;12.10;;
37199;SDS011;23096;50.892;16.746;2024-02-26T09:58:33;19.10;;;12.70;;
37199;SDS011;23096;50.892;16.746;2024-02-26T10:01:00;20.00;;;12.00;;
37199;SDS011;23096;50.892;16.746;2024-02-26T10:03:31;20.00;;;13.40;;
37199;SDS011;23096;50.892;16.746;2024-02-26T10:06:02;21.60;;;12.20;;
37199;SDS011;23096;50.892;16.746;2024-02-26T10:08:31;18.80;;;12.00;;
37199;SDS011;23096;50.892;16.746;2024-02-26T10:10:58;18.10;;;11.80;;
37199;SDS011;23096;50.892;16.746;2024-02-26T10:13:24;18.00;;;12.50;;
37199;SDS011;23096;50.892;16.746;2024-02-26T10:15:50;16.20;;;11.20;;
37199;SDS011;23096;50.892;16.746;2024-02-26T10:18:16;20.20;;;12.20;;
37199;SDS011;23096;50.892;16.746;2024-02-26T10:20:41;17.80;;;12.40;;
37199;SDS011;23096;50.892;16.746;2024-02-26T10:23:07;19.70;;;12.70;;
37199;SDS011;23096;50.892;16.746;2024-02-26T10:25:33;24.60;;;12.40;;
37199;SDS011;23096;50.892;16.746;2024-02-26T10:27:59;20.80;;;12.40;;
37199;SDS011;23096;50.892;16.746;2024-02-26T10:30:28;19.70;;;12.00;;
37199;SDS011;23096;50.892;16.746;2024-02-26T10:32:54;17.00;;;12.20;;
37199;SDS011;23096;50.892;16.746;2024-02-26T10:35:21;19.20;;;11.70;;
37199;SDS011;23096;50.892;16.746;2024-02-26T10:37:47;17.60;;;12.20;;
37199;SDS011;23096;50.892;16.746;2024-02-26T10:40:14;19.10;;;12.60;;
37199;SDS011;23096;50.892;16.746;2024-02-26T10:42:41;18.00;;;12.00;;
37199;SDS011;23096;50.892;16.746;2024-02-26T10:45:07;18.20;;;11.90;;
37199;SDS011;23096;50.892;16.746;2024-02-26T10:47:34;17.30;;;11.20;;
37199;SDS011;23096;50.892;16.746;2024-02-26T10:50:01;16.60;;;10.80;;
37199;SDS011;23096;50.892;16.746;2024-02-26T10:52:28;15.80;;;9.70;;
37199;SDS011;23096;50.892;16.746;2024-02-26T10:55:00;14.30;;;9.20;;
37199;SDS011;23096;50.892;16.746;2024-02-26T10:57:29;14.40;;;9.20;;
37199;SDS011;23096;50.892;16.746;2024-02-26T10:59:58;11.60;;;8.60;;
37199;SDS011;23096;50.892;16.746;2024-02-26T11:02:25;12.10;;;7.80;;
37199;SDS011;23096;50.892;16.746;2024-02-26T11:04:51;12.10;;;7.80;;
37199;SDS011;23096;50.892;16.746;2024-02-26T11:07:17;9.80;;;7.40;;
37199;SDS011;23096;50.892;16.746;2024-02-26T11:09:44;10.40;;;6.20;;
37199;SDS011;23096;50.892;16.746;2024-02-26T11:12:17;8.30;;;5.60;;
37199;SDS011;23096;50.892;16.746;2024-02-26T11:14:44;6.30;;;4.60;;
37199;SDS011;23096;50.892;16.746;2024-02-26T11:17:11;7.70;;;5.80;;
37199;SDS011;23096;50.892;16.746;2024-02-26T11:19:38;7.70;;;5.20;;
37199;SDS011;23096;50.892;16.746;2024-02-26T11:22:08;9.10;;;5.80;;
37199;SDS011;23096;50.892;16.746;2024-02-26T11:24:33;9.60;;;4.80;;
37199;SDS011;23096;50.892;16.746;2024-02-26T11:27:00;8.60;;;4.80;;
37199;SDS011;23096;50.892;16.746;2024-02-26T11:29:32;6.10;;;4.50;;
37199;SDS011;23096;50.892;16.746;2024-02-26T11:32:04;7.90;;;4.50;;
37199;SDS011;23096;50.892;16.746;2024-02-26T11:34:31;6.70;;;4.60;;
37199;SDS011;23096;50.892;16.746;2024-02-26T11:36:56;6.80;;;4.60;;
37199;SDS011;23096;50.892;16.746;2024-02-26T11:39:22;8.20;;;4.40;;
37199;SDS011;23096;50.892;16.746;2024-02-26T11:41:49;8.60;;;4.50;;
37199;SDS011;23096;50.892;16.746;2024-02-26T11:44:16;9.70;;;4.80;;
37199;SDS011;23096;50.892;16.746;2024-02-26T11:46:55;8.20;;;4.60;;
37199;SDS011;23096;50.892;16.746;2024-02-26T11:51:54;7.10;;;4.30;;
37199;SDS011;23096;50.892;16.746;2024-02-26T11:57:19;9.00;;;4.70;;
37199;SDS011;23096;50.892;16.746;2024-02-26T11:59:53;7.40;;;4.30;;
37199;SDS011;23096;50.892;16.746;2024-02-26T12:05:13;8.40;;;4.40;;
37199;SDS011;23096;50.892;16.746;2024-02-26T12:07:45;8.10;;;4.70;;
37199;SDS011;23096;50.892;16.746;2024-02-26T12:13:07;8.60;;;3.90;;
37199;SDS011;23096;50.892;16.746;2024-02-26T12:15:38;6.00;;;4.70;;
37199;SDS011;23096;50.892;16.746;2024-02-26T12:18:07;7.60;;;4.60;;
37199;SDS011;23096;50.892;16.746;2024-02-26T12:20:34;6.00;;;4.60;;
37199;SDS011;23096;50.892;16.746;2024-02-26T12:23:00;7.70;;;5.10;;
37199;SDS011;23096;50.892;16.746;2024-02-26T12:25:28;9.70;;;4.40;;
37199;SDS011;23096;50.892;16.746;2024-02-26T12:27:54;10.90;;;4.90;;
37199;SDS011;23096;50.892;16.746;2024-02-26T12:30:20;7.80;;;4.50;;
37199;SDS011;23096;50.892;16.746;2024-02-26T12:32:50;5.90;;;4.30;;
37199;SDS011;23096;50.892;16.746;2024-02-26T12:35:17;6.60;;;4.20;;
37199;SDS011;23096;50.892;16.746;2024-02-26T12:37:43;7.00;;;5.00;;
37199;SDS011;23096;50.892;16.746;2024-02-26T12:40:08;9.70;;;4.50;;
37199;SDS011;23096;50.892;16.746;2024-02-26T12:42:35;8.20;;;4.40;;
37199;SDS011;23096;50.892;16.746;2024-02-26T12:45:08;8.00;;;4.40;;
37199;SDS011;23096;50.892;16.746;2024-02-26T12:47:37;8.10;;;5.10;;
37199;SDS011;23096;50.892;16.746;2024-02-26T12:50:03;7.70;;;4.20;;
37199;SDS011;23096;50.892;16.746;2024-02-26T12:52:31;9.90;;;4.90;;
37199;SDS011;23096;50.892;16.746;2024-02-26T12:55:03;8.30;;;4.40;;
37199;SDS011;23096;50.892;16.746;2024-02-26T12:57:33;5.90;;;4.00;;
37199;SDS011;23096;50.892;16.746;2024-02-26T13:00:01;6.70;;;4.40;;
37199;SDS011;23096;50.892;16.746;2024-02-26T13:02:28;8.00;;;4.20;;
37199;SDS011;23096;50.892;16.746;2024-02-26T13:04:55;6.50;;;4.20;;
37199;SDS011;23096;50.892;16.746;2024-02-26T13:07:22;6.60;;;4.30;;
37199;SDS011;23096;50.892;16.746;2024-02-26T13:09:48;5.90;;;3.80;;
37199;SDS011;23096;50.892;16.746;2024-02-26T13:12:13;6.50;;;3.70;;
37199;SDS011;23096;50.892;16.746;2024-02-26T13:14:39;6.80;;;3.80;;
37199;SDS011;23096;50.892;16.746;2024-02-26T13:17:05;5.80;;;4.10;;
37199;SDS011;23096;50.892;16.746;2024-02-26T13:19:31;6.00;;;3.70;;
37199;SDS011;23096;50.892;16.746;2024-02-26T13:22:04;8.30;;;4.60;;
37199;SDS011;23096;50.892;16.746;2024-02-26T13:24:31;9.70;;;4.10;;
37199;SDS011;23096;50.892;16.746;2024-02-26T13:27:01;10.40;;;5.90;;
37199;SDS011;23096;50.892;16.746;2024-02-26T13:29:30;9.40;;;5.00;;
37199;SDS011;23096;50.892;16.746;2024-02-26T13:31:58;8.20;;;4.40;;
37199;SDS011;23096;50.892;16.746;2024-02-26T13:34:27;6.00;;;4.00;;
37199;SDS011;23096;50.892;16.746;2024-02-26T13:36:56;6.90;;;3.90;;
37199;SDS011;23096;50.892;16.746;2024-02-26T13:39:22;9.80;;;4.60;;
37199;SDS011;23096;50.892;16.746;2024-02-26T13:41:49;4.30;;;3.20;;
37199;SDS011;23096;50.892;16.746;2024-02-26T13:44:15;6.50;;;4.20;;
37199;SDS011;23096;50.892;16.746;2024-02-26T13:46:40;5.90;;;3.70;;
37199;SDS011;23096;50.892;16.746;2024-02-26T13:49:07;6.40;;;3.60;;
37199;SDS011;23096;50.892;16.746;2024-02-26T13:51:34;6.10;;;3.80;;
37199;SDS011;23096;50.892;16.746;2024-02-26T13:54:04;4.40;;;3.80;;
37199;SDS011;23096;50.892;16.746;2024-02-26T13:56:30;9.30;;;5.20;;
37199;SDS011;23096;50.892;16.746;2024-02-26T13:58:56;16.10;;;8.10;;
37199;SDS011;23096;50.892;16.746;2024-02-26T14:01:23;12.40;;;5.40;;
37199;SDS011;23096;50.892;16.746;2024-02-26T14:03:49;13.00;;;5.60;;
37199;SDS011;23096;50.892;16.746;2024-02-26T14:06:15;15.70;;;7.30;;
37199;SDS011;23096;50.892;16.746;2024-02-26T14:08:41;14.80;;;7.50;;
37199;SDS011;23096;50.892;16.746;2024-02-26T14:11:07;18.40;;;7.70;;
37199;SDS011;23096;50.892;16.746;2024-02-26T14:13:32;28.40;;;15.10;;
37199;SDS011;23096;50.892;16.746;2024-02-26T14:15:58;21.90;;;10.20;;
37199;SDS011;23096;50.892;16.746;2024-02-26T14:18:23;18.90;;;8.80;;
37199;SDS011;23096;50.892;16.746;2024-02-26T14:20:49;13.50;;;7.90;;
37199;SDS011;23096;50.892;16.746;2024-02-26T14:23:15;10.00;;;6.30;;
37199;SDS011;23096;50.892;16.746;2024-02-26T14:25:40;19.00;;;8.10;;